This is the latest recevied weather packets stored in our database for station/object KN6ZYR. If no packets are shown the sender has not sent any weather packets the latest 10 day(s).
| Time | Temp. | Humidity | Pressure | Rain* | Wind** | Luminosity | Snow |
|---|---|---|---|---|---|---|---|
| 1777532404 | 12.22° C | 49% | 1021.3 hPa | 0 mm | - | 0 W/m² | - |
| 1777532101 | 13.33° C | 46% | 1021.7 hPa | 0 mm | - | 0 W/m² | - |
| 1777531796 | 13.89° C | 39% | 1021.5 hPa | 0 mm | - | 0 W/m² | - |
| 1777531493 | 13.89° C | 39% | 1021.6 hPa | 0 mm | - | 0 W/m² | - |
| 1777531191 | 12.78° C | 43% | 1021.5 hPa | 0 mm | - | 0 W/m² | - |
| 1777530888 | 12.22° C | 49% | 1021.5 hPa | 0 mm | - | 0 W/m² | - |
| 1777530585 | 11.67° C | 49% | 1021.6 hPa | 0 mm | - | 0 W/m² | - |
| 1777530282 | 11.67° C | 49% | 1021.5 hPa | 0 mm | - | 0 W/m² | - |
| 1777529978 | 11.67° C | 49% | 1021.5 hPa | 0 mm | - | 0 W/m² | - |
| 1777529676 | 11.67° C | 48% | 1021.5 hPa | 0 mm | - | 0 W/m² | - |
| 1777529372 | 12.22° C | 50% | 1021.3 hPa | 0 mm | - | 0 W/m² | - |
| 1777529069 | 12.22° C | 50% | 1021.5 hPa | 0 mm | - | 0 W/m² | - |
| 1777528764 | 12.22° C | 51% | 1021.3 hPa | 0 mm | - | 0 W/m² | - |
| 1777528462 | 12.78° C | 48% | 1021.3 hPa | 0 mm | - | 0 W/m² | - |
| 1777528161 | 13.33° C | 46% | 1021.3 hPa | 0 mm | - | 0 W/m² | - |
| 1777527857 | 13.89° C | 45% | 1021.4 hPa | 0 mm | - | 0 W/m² | - |
| 1777527553 | 14.44° C | 43% | 1021.2 hPa | 0 mm | - | 0 W/m² | - |
| 1777527248 | 13.89° C | 39% | 1021 hPa | 0 mm | - | 0 W/m² | - |
| 1777526944 | 13.89° C | 39% | 1021.3 hPa | 0 mm | - | 0 W/m² | - |
| 1777526640 | 13.89° C | 39% | 1021.3 hPa | 0 mm | - | 0 W/m² | - |
| 1777526334 | 13.89° C | 38% | 1021.3 hPa | 0 mm | - | 0 W/m² | - |
| 1777526030 | 13.89° C | 39% | 1021.3 hPa | 0 mm | - | 0 W/m² | - |
| 1777525727 | 13.89° C | 40% | 1021.4 hPa | 0 mm | - | 0 W/m² | - |
| 1777525424 | 13.89° C | 40% | 1021.2 hPa | 0 mm | - | 0 W/m² | - |
| 1777525120 | 12.78° C | 42% | 1021.4 hPa | 0 mm | - | 0 W/m² | - |
* Rain latest hour (hover to see other rain measurements)
** Current wind speed in m/s (hover to see current wind gust speed)